Grand Tower, IL (62942)

7:02 PM CST on February 05, 2016 (GMT -0600)
Grand Tower Island | | Change Station
CLOSE
Current Station
Personal Weather Station
Location: Grand Tower, IL
Elevation: 344 ft
Nearby Weather Stations

Elev 344 ft 37.59 °N, 89.49 °W | Updated 1 minute ago

Clear
Clear
32.2 °F
Feels Like 32 °F
N
2.0
Wind Variable Wind from NW
Gusts 3.0 mph

Today
High -- | Low -- °F
--% Chance of Precip.
Yesterday
High -- | Low -- °F
Precip. -- in
Pressure 30.38 in
Visibility 10.0 miles
Clouds Clear
Windchill 32 °F
Dew Point 26 °F
Humidity 80%
Rainfall 0.00 in
Snow Depth Not available.
6:58 AM 5:25 PM
Waning Crescent, 8% visible
METAR KMDH 060052Z AUTO 02003KT 10SM CLR 01/M06 A3037 RMK AO2 SLP288 T00061056
Pressure 30.38 in
Visibility 10.0 miles
Clouds Clear
Windchill 32 °F
Dew Point 26 °F
Humidity 80%
Rainfall 0.00 in
Snow Depth Not available.
6:58 AM 5:25 PM
Waning Crescent, 8% visible
METAR KMDH 060052Z AUTO 02003KT 10SM CLR 01/M06 A3037 RMK AO2 SLP288 T00061056

10-Day Weather Forecast

Almanac

Astronomy

Feb. 05, 2016 Rise Set
Actual Time
Civil Twilight
Nautical Twilight
Astronomical Twilight
Moon
Length of Visible Light
Length of Day
Tomorrow will be .
, % of the Moon is Illuminated

Today's Extremes

State Highs State Lows

Community

WunderPhotos

Upload Photos

1,890,902 photos uploaded!

WunderBlog® & News

Nearby

Air Quality

  Air Quality AQ Index Pollutant
Not available.

Snow Depth

Station Depth Elevation

Earthquake Activity

City Distance Mag. Time & Date
Minimum magnitude displayed is 2.5.

Coastal Water Temperatures

Place Temperature

Stations

Nearby Weather Stations

Station Location Temp. Windchill Dew Point Humidity Wind Precip. Elev Updated Type
                   

Watches & Warnings

There are currently no watches in effect.